createdAt,value
2023-05-12T00:00:49.806Z,92428.22
2023-05-12T00:03:16.380Z,92423.84
2023-05-12T00:05:42.869Z,92419.91
2023-05-12T00:08:09.383Z,92412.28
2023-05-12T00:10:35.822Z,92414.25
2023-05-12T00:13:02.585Z,92413.75
2023-05-12T00:15:29.105Z,92410.53
2023-05-12T00:17:55.686Z,92414.72
2023-05-12T00:20:22.563Z,92408.75
2023-05-12T00:22:49.173Z,92414.72
2023-05-12T00:25:15.758Z,92409.56
2023-05-12T00:27:42.233Z,92411.00
2023-05-12T00:30:09.363Z,92409.03
2023-05-12T00:32:35.866Z,92393.56
2023-05-12T00:35:02.631Z,92403.22
2023-05-12T00:37:29.099Z,92397.53
2023-05-12T00:39:55.572Z,92397.53
2023-05-12T00:42:22.053Z,92396.06
2023-05-12T00:44:48.539Z,92395.56
2023-05-12T00:47:15.035Z,92389.41
2023-05-12T00:49:42.745Z,92392.59
2023-05-12T00:52:09.250Z,92384.75
2023-05-12T00:54:36.186Z,92390.16
2023-05-12T00:57:02.696Z,92392.41
2023-05-12T00:59:29.679Z,92383.06
2023-05-12T01:01:56.160Z,92383.00
2023-05-12T01:04:23.163Z,92388.69
2023-05-12T01:07:28.586Z,92386.44
2023-05-12T01:09:56.422Z,92381.31
2023-05-12T01:12:23.773Z,92384.75
2023-05-12T01:14:50.838Z,92384.22
2023-05-12T01:17:19.775Z,92385.16
2023-05-12T01:19:52.163Z,92380.31
2023-05-12T01:22:18.754Z,92381.03
2023-05-12T01:24:50.686Z,92384.00
2023-05-12T01:27:18.479Z,92372.66
2023-05-12T01:29:45.788Z,92381.44
2023-05-12T01:32:12.622Z,92377.78
2023-05-12T01:34:39.151Z,92372.59
2023-05-12T01:37:06.046Z,92379.94
2023-05-12T01:39:32.494Z,92375.56
2023-05-12T01:41:58.960Z,92381.66
2023-05-12T01:44:25.431Z,92380.44
2023-05-12T01:46:51.944Z,92380.69
2023-05-12T01:49:18.511Z,92384.88
2023-05-12T01:51:44.993Z,92391.78
2023-05-12T01:54:11.440Z,92389.81
2023-05-12T01:56:37.898Z,92386.84
2023-05-12T01:59:04.395Z,92385.34
2023-05-12T02:01:32.253Z,92385.84
2023-05-12T02:03:59.344Z,92388.53
2023-05-12T02:06:26.311Z,92384.63
2023-05-12T02:08:52.797Z,92387.31
2023-05-12T02:11:19.339Z,92385.56
2023-05-12T02:13:45.857Z,92382.59
2023-05-12T02:16:12.424Z,92388.53
2023-05-12T02:18:38.996Z,92380.16
2023-05-12T02:21:05.600Z,92377.47
2023-05-12T02:23:32.063Z,92379.88
2023-05-12T02:25:58.504Z,92377.94
2023-05-12T02:28:25.040Z,92366.75
2023-05-12T02:30:52.934Z,92377.69
2023-05-12T02:33:20.150Z,92379.94
2023-05-12T02:35:46.623Z,92371.16
2023-05-12T02:38:13.299Z,92378.06
2023-05-12T02:40:39.808Z,92373.38
2023-05-12T02:43:07.084Z,92374.59
2023-05-12T02:45:33.888Z,92366.69
2023-05-12T02:48:00.428Z,92368.63
2023-05-12T02:50:27.082Z,92364.91
2023-05-12T02:52:53.539Z,92364.19
2023-05-12T02:55:20.008Z,92365.94
2023-05-12T02:57:46.480Z,92367.41
2023-05-12T03:00:13.470Z,92364.72
2023-05-12T03:02:40.037Z,92370.31
2023-05-12T03:05:07.480Z,92367.16
2023-05-12T03:07:34.021Z,92367.09
2023-05-12T03:10:01.576Z,92362.16
2023-05-12T03:12:30.970Z,92361.22
2023-05-12T03:14:57.516Z,92362.22
2023-05-12T03:17:23.988Z,92360.47
2023-05-12T03:19:50.716Z,92362.44
2023-05-12T03:22:17.264Z,92355.28
2023-05-12T03:24:43.806Z,92355.53
2023-05-12T03:27:10.284Z,92357.03
2023-05-12T03:29:36.785Z,92359.16
2023-05-12T03:32:03.276Z,92347.34
2023-05-12T03:34:29.721Z,92354.72
2023-05-12T03:36:56.209Z,92353.75
2023-05-12T03:39:24.752Z,92356.19
2023-05-12T03:41:51.247Z,92355.91
2023-05-12T03:44:18.686Z,92346.53
2023-05-12T03:46:45.506Z,92353.22
2023-05-12T03:49:12.529Z,92350.50
2023-05-12T03:51:39.046Z,92347.28
2023-05-12T03:54:05.709Z,92347.59
2023-05-12T03:56:32.372Z,92350.59
2023-05-12T03:58:58.846Z,92342.75
2023-05-12T04:01:25.499Z,92347.97
2023-05-12T04:03:52.197Z,92344.25
2023-05-12T04:06:18.753Z,92349.13
2023-05-12T04:08:45.438Z,92343.41
2023-05-12T04:11:12.016Z,92351.81
2023-05-12T04:13:38.522Z,92348.44
2023-05-12T04:16:05.314Z,92354.69
2023-05-12T04:18:31.826Z,92343.09
2023-05-12T04:20:58.303Z,92349.72
2023-05-12T04:23:24.929Z,92352.63
2023-05-12T04:25:51.390Z,92354.59
2023-05-12T04:28:17.901Z,92350.94
2023-05-12T04:30:44.428Z,92350.41
2023-05-12T04:33:11.020Z,92356.34
2023-05-12T04:35:37.533Z,92352.97
2023-05-12T04:38:04.435Z,92354.47
2023-05-12T04:40:33.384Z,92358.19
2023-05-12T04:43:01.292Z,92355.00
2023-05-12T04:45:27.796Z,92359.75
2023-05-12T04:47:54.378Z,92360.50
2023-05-12T04:50:21.202Z,92365.63
2023-05-12T04:52:47.761Z,92366.91
2023-05-12T04:55:14.300Z,92360.00
2023-05-12T04:57:41.504Z,92364.41
2023-05-12T05:00:09.067Z,92363.38
2023-05-12T05:02:35.879Z,92374.94
2023-05-12T05:05:02.847Z,92372.53
2023-05-12T05:07:29.344Z,92381.91
2023-05-12T05:09:55.904Z,92372.78
2023-05-12T05:12:22.372Z,92377.25
2023-05-12T05:14:48.896Z,92373.28
2023-05-12T05:17:15.415Z,92379.59
2023-05-12T05:19:54.877Z,92384.25
2023-05-12T05:22:24.655Z,92378.69
2023-05-12T05:24:51.717Z,92372.31
2023-05-12T05:27:18.269Z,92376.78
2023-05-12T05:29:44.812Z,92383.47
2023-05-12T05:32:11.402Z,92383.53
2023-05-12T05:34:38.208Z,92380.63
2023-05-12T05:37:04.936Z,92384.91
2023-05-12T05:39:31.500Z,92389.09
2023-05-12T05:41:58.200Z,92386.13
2023-05-12T05:46:45.797Z,92387.34
2023-05-12T05:49:12.274Z,92381.22
2023-05-12T05:51:38.721Z,92382.06
2023-05-12T05:54:05.204Z,92389.00
2023-05-12T05:56:33.209Z,92385.16
2023-05-12T05:59:03.043Z,92381.34
2023-05-12T06:01:29.564Z,92380.47
2023-05-12T06:03:56.145Z,92381.31
2023-05-12T06:06:22.637Z,92382.94
2023-05-12T06:08:49.132Z,92387.47
2023-05-12T06:11:17.746Z,92386.81
2023-05-12T06:13:44.531Z,92373.78
2023-05-12T06:16:11.021Z,92382.56
2023-05-12T06:18:38.302Z,92382.66
2023-05-12T06:21:05.393Z,92380.72
2023-05-12T06:23:31.991Z,92385.44
2023-05-12T06:25:58.441Z,92386.47
2023-05-12T06:28:24.937Z,92384.81
2023-05-12T06:30:51.451Z,92392.50
2023-05-12T06:33:17.956Z,92385.66
2023-05-12T06:35:44.522Z,92394.81
2023-05-12T06:38:10.984Z,92390.13
2023-05-12T06:40:37.433Z,92394.88
2023-05-12T06:43:04.053Z,92396.59
2023-05-12T06:45:30.705Z,92393.66
2023-05-12T06:47:57.783Z,92400.59
2023-05-12T06:50:24.362Z,92397.16
2023-05-12T06:52:51.076Z,92395.19
2023-05-12T06:55:20.498Z,92397.41
2023-05-12T06:57:47.638Z,92399.91
2023-05-12T07:00:14.617Z,92398.69
2023-05-12T07:02:41.256Z,92397.94
2023-05-12T07:05:08.571Z,92401.53
2023-05-12T07:07:35.982Z,92399.59
2023-05-12T07:10:02.490Z,92406.34
2023-05-12T07:12:29.007Z,92403.66
2023-05-12T07:14:56.044Z,92404.66
2023-05-12T07:17:22.613Z,92412.03
2023-05-12T07:19:49.195Z,92411.00
2023-05-12T07:22:15.746Z,92410.00
2023-05-12T07:24:42.217Z,92413.22
2023-05-12T07:27:08.817Z,92410.75
2023-05-12T07:29:35.292Z,92406.47
2023-05-12T07:32:01.805Z,92406.06
2023-05-12T07:34:28.266Z,92399.63
2023-05-12T07:36:54.742Z,92407.00
2023-05-12T07:39:23.668Z,92407.50
2023-05-12T07:41:51.065Z,92400.50
2023-05-12T07:44:17.663Z,92397.63
2023-05-12T07:46:44.322Z,92399.00
2023-05-12T07:49:10.814Z,92398.78
2023-05-12T07:51:37.413Z,92401.78
2023-05-12T07:54:04.838Z,92403.72
2023-05-12T07:56:31.350Z,92396.47
2023-05-12T07:58:57.813Z,92399.59
2023-05-12T08:01:24.364Z,92394.91
2023-05-12T08:03:51.402Z,92397.44
2023-05-12T08:06:18.478Z,92392.31
2023-05-12T08:08:44.991Z,92393.09
2023-05-12T08:11:12.643Z,92387.19
2023-05-12T08:13:39.245Z,92391.66
2023-05-12T08:16:06.254Z,92390.19
2023-05-12T08:18:32.916Z,92397.84
2023-05-12T08:20:59.450Z,92393.09
2023-05-12T08:23:25.953Z,92390.38
2023-05-12T08:25:52.453Z,92394.09
2023-05-12T08:28:18.951Z,92388.16
2023-05-12T08:30:45.559Z,92394.81
2023-05-12T08:33:12.598Z,92396.28
2023-05-12T08:35:39.277Z,92395.22
2023-05-12T08:38:06.147Z,92391.31
2023-05-12T08:40:34.645Z,92391.03
2023-05-12T08:43:13.710Z,92393.03
2023-05-12T08:45:40.208Z,92392.31
2023-05-12T08:48:09.286Z,92394.06
2023-05-12T08:50:36.063Z,92398.50
2023-05-12T08:53:04.168Z,92395.34
2023-05-12T08:55:33.593Z,92392.16
2023-05-12T08:58:00.932Z,92390.09
2023-05-12T09:00:28.294Z,92383.94
2023-05-12T09:02:55.092Z,92389.31
2023-05-12T09:05:22.532Z,92385.03
2023-05-12T09:07:49.380Z,92378.97
2023-05-12T09:10:29.860Z,92381.47
2023-05-12T09:13:04.587Z,92382.34
2023-05-12T09:15:35.232Z,92391.09
2023-05-12T09:18:01.753Z,92386.03
2023-05-12T09:20:31.948Z,92385.34
2023-05-12T09:23:00.050Z,92382.84
2023-05-12T09:25:26.552Z,92387.19
2023-05-12T09:27:57.346Z,92390.59
2023-05-12T09:30:31.636Z,92393.19
2023-05-12T09:33:12.194Z,92386.72
2023-05-12T09:35:40.087Z,92380.66
2023-05-12T09:38:10.342Z,92382.38
2023-05-12T09:40:36.944Z,92383.84
2023-05-12T09:43:07.169Z,92380.13
2023-05-12T09:45:37.301Z,92381.31
2023-05-12T09:48:13.745Z,92375.75
2023-05-12T09:50:48.411Z,92373.16
2023-05-12T09:53:17.288Z,92377.63
2023-05-12T09:55:44.587Z,92374.81
2023-05-12T09:58:11.147Z,92377.22
2023-05-12T10:00:55.064Z,92373.22
2023-05-12T10:03:25.624Z,92370.63
2023-05-12T10:05:58.101Z,92365.97
2023-05-12T10:08:27.187Z,92373.75
2023-05-12T10:10:53.899Z,92368.91
2023-05-12T10:13:20.477Z,92371.75
2023-05-12T10:15:47.264Z,92377.75
2023-05-12T10:18:14.434Z,92374.22
2023-05-12T10:20:41.430Z,92380.34
2023-05-12T10:23:07.950Z,92378.88
2023-05-12T10:25:34.601Z,92377.72
2023-05-12T10:28:01.764Z,92384.78
2023-05-12T10:30:28.249Z,92383.63
2023-05-12T10:32:54.791Z,92379.50
2023-05-12T10:35:21.528Z,92374.56
2023-05-12T10:37:48.180Z,92382.47
2023-05-12T10:40:23.947Z,92374.03
2023-05-12T10:42:50.398Z,92375.22
2023-05-12T10:45:18.222Z,92376.22
2023-05-12T10:47:45.393Z,92379.47
2023-05-12T10:50:14.830Z,92371.34
2023-05-12T10:52:52.372Z,92370.75
2023-05-12T10:55:19.232Z,92379.53
2023-05-12T10:57:50.658Z,92376.00
2023-05-12T11:00:23.039Z,92371.22
2023-05-12T11:02:51.394Z,92370.41
2023-05-12T11:05:19.228Z,92361.75
2023-05-12T11:07:50.074Z,92362.91
2023-05-12T11:10:17.969Z,92363.69
2023-05-12T11:12:45.067Z,92372.69
2023-05-12T11:15:12.113Z,92367.34
2023-05-12T11:17:40.456Z,92369.88
2023-05-12T11:20:09.648Z,92369.78
2023-05-12T11:22:36.116Z,92363.56
2023-05-12T11:25:12.049Z,92367.53
2023-05-12T11:27:42.334Z,92365.47
2023-05-12T11:30:10.962Z,92362.66
2023-05-12T11:32:38.131Z,92357.50
2023-05-12T11:35:23.072Z,92359.03
2023-05-12T11:37:49.796Z,92357.94
2023-05-12T11:40:21.650Z,92355.41
2023-05-12T11:42:51.678Z,92348.97
2023-05-12T11:45:26.109Z,92349.84
2023-05-12T11:47:53.557Z,92352.81
2023-05-12T11:50:21.935Z,92342.22
2023-05-12T11:52:48.535Z,92338.66
2023-05-12T11:55:20.248Z,92329.06
2023-05-12T11:57:55.344Z,92336.00
2023-05-12T12:00:30.203Z,92340.16
2023-05-12T12:03:13.224Z,92339.34
2023-05-12T12:05:40.878Z,92334.78
2023-05-12T12:08:13.324Z,92333.19
2023-05-12T12:10:43.879Z,92327.69
2023-05-12T12:13:10.362Z,92328.97
2023-05-12T12:15:36.964Z,92336.09
2023-05-12T12:18:03.690Z,92337.50
2023-05-12T12:20:30.215Z,92347.09
2023-05-12T12:22:56.724Z,92340.75
2023-05-12T12:25:23.502Z,92331.38
2023-05-12T12:27:50.073Z,92339.06
2023-05-12T12:30:17.016Z,92334.66
2023-05-12T12:32:44.189Z,92342.69
2023-05-12T12:35:11.521Z,92332.00
2023-05-12T12:37:38.030Z,92330.63
2023-05-12T12:40:08.204Z,92329.63
2023-05-12T12:42:35.986Z,92336.38
2023-05-12T12:45:05.974Z,92337.00
2023-05-12T12:47:32.624Z,92339.31
2023-05-12T12:49:59.748Z,92337.59
2023-05-12T12:52:26.237Z,92336.78
2023-05-12T12:54:52.716Z,92337.44
2023-05-12T12:57:20.898Z,92325.97
2023-05-12T12:59:47.536Z,92335.13
2023-05-12T13:02:14.285Z,92330.94
2023-05-12T13:04:40.822Z,92329.47
2023-05-12T13:07:07.292Z,92337.38
2023-05-12T13:09:33.795Z,92335.84
2023-05-12T13:12:00.950Z,92334.66
2023-05-12T13:14:27.497Z,92332.66
2023-05-12T13:16:54.043Z,92327.97
2023-05-12T13:19:21.627Z,92329.97
2023-05-12T13:21:48.161Z,92323.53
2023-05-12T13:24:14.692Z,92331.84
2023-05-12T13:26:41.192Z,92333.34
2023-05-12T13:29:07.677Z,92331.84
2023-05-12T13:31:34.279Z,92337.91
2023-05-12T13:34:00.892Z,92331.72
2023-05-12T13:36:28.524Z,92344.88
2023-05-12T13:38:55.036Z,92346.84
2023-05-12T13:41:21.508Z,92331.97
2023-05-12T13:43:48.199Z,92327.94
2023-05-12T13:46:14.751Z,92330.53
2023-05-12T13:48:41.833Z,92319.53
2023-05-12T13:51:08.372Z,92322.63
2023-05-12T13:53:37.172Z,92317.88
2023-05-12T13:56:03.723Z,92316.09
2023-05-12T13:58:30.174Z,92316.03
2023-05-12T14:00:56.652Z,92320.56
2023-05-12T14:03:23.126Z,92320.47
2023-05-12T14:05:49.588Z,92321.50
2023-05-12T14:08:16.600Z,92317.91
2023-05-12T14:10:43.087Z,92304.16
2023-05-12T14:13:09.543Z,92324.63
2023-05-12T14:15:47.785Z,92310.28
2023-05-12T14:18:15.561Z,92324.22
2023-05-12T14:20:42.035Z,92325.16
2023-05-12T14:23:08.558Z,92319.31
2023-05-12T14:25:35.287Z,92322.34
2023-05-12T14:28:01.961Z,92327.16
2023-05-12T14:30:28.558Z,92322.78
2023-05-12T14:32:55.203Z,92326.06
2023-05-12T14:35:22.411Z,92323.56
2023-05-12T14:37:49.158Z,92329.50
2023-05-12T14:40:15.677Z,92316.03
2023-05-12T14:42:42.336Z,92325.88
2023-05-12T14:45:09.293Z,92324.53
2023-05-12T14:47:36.512Z,92320.75
2023-05-12T14:50:03.127Z,92323.13
2023-05-12T14:52:29.733Z,92331.13
2023-05-12T14:54:56.315Z,92327.91
2023-05-12T14:57:22.827Z,92323.50
2023-05-12T14:59:52.267Z,92326.44
2023-05-12T15:02:18.756Z,92326.84
2023-05-12T15:04:45.275Z,92323.47
2023-05-12T15:07:11.804Z,92333.53
2023-05-12T15:09:38.263Z,92329.41
2023-05-12T15:12:05.047Z,92325.31
2023-05-12T15:14:31.851Z,92321.53
2023-05-12T15:16:58.414Z,92319.84
2023-05-12T15:19:25.119Z,92318.63
2023-05-12T15:21:51.575Z,92328.91
2023-05-12T15:24:18.411Z,92329.44
2023-05-12T15:26:44.874Z,92335.66
2023-05-12T15:29:11.327Z,92332.22
2023-05-12T15:31:37.857Z,92337.03
2023-05-12T15:34:04.421Z,92334.00
2023-05-12T15:36:32.185Z,92334.56
2023-05-12T15:38:58.813Z,92343.44
2023-05-12T15:41:25.594Z,92332.41
2023-05-12T15:43:52.067Z,92339.66
2023-05-12T15:46:18.555Z,92340.06
2023-05-12T15:48:45.068Z,92336.81
2023-05-12T15:51:11.776Z,92340.25
2023-05-12T15:53:38.242Z,92335.78
2023-05-12T15:56:05.125Z,92337.97
2023-05-12T15:58:31.812Z,92340.81
2023-05-12T16:00:58.462Z,92340.28
2023-05-12T16:03:25.109Z,92330.72
2023-05-12T16:05:51.754Z,92330.16
2023-05-12T16:08:18.343Z,92330.09
2023-05-12T16:10:44.875Z,92325.78
2023-05-12T16:13:11.364Z,92322.22
2023-05-12T16:15:37.843Z,92319.97
2023-05-12T16:18:05.858Z,92318.69
2023-05-12T16:20:33.686Z,92318.16
2023-05-12T16:23:00.242Z,92321.44
2023-05-12T16:25:26.771Z,92322.97
2023-05-12T16:27:53.506Z,92322.28
2023-05-12T16:30:20.442Z,92329.53
2023-05-12T16:32:47.461Z,92327.94
2023-05-12T16:35:14.172Z,92327.22
2023-05-12T16:37:41.173Z,92322.09
2023-05-12T16:40:08.245Z,92321.22
2023-05-12T16:42:34.740Z,92326.94
2023-05-12T16:45:01.485Z,92322.06
2023-05-12T16:47:29.459Z,92320.75
2023-05-12T16:49:57.977Z,92328.69
2023-05-12T16:52:25.231Z,92328.09
2023-05-12T16:54:51.829Z,92321.72
2023-05-12T16:57:18.657Z,92326.22
2023-05-12T16:59:45.382Z,92319.94
2023-05-12T17:02:11.946Z,92328.00
2023-05-12T17:04:38.530Z,92325.38
2023-05-12T17:07:05.253Z,92323.59
2023-05-12T17:09:31.771Z,92336.22
2023-05-12T17:11:58.230Z,92335.31
2023-05-12T17:14:24.715Z,92327.16
2023-05-12T17:16:51.591Z,92331.00
2023-05-12T17:19:18.224Z,92332.19
2023-05-12T17:21:44.767Z,92336.75
2023-05-12T17:24:11.231Z,92335.84
2023-05-12T17:26:37.808Z,92340.13
2023-05-12T17:29:04.362Z,92335.97
2023-05-12T17:31:30.914Z,92336.59
2023-05-12T17:33:57.465Z,92341.94
2023-05-12T17:36:24.015Z,92338.53
2023-05-12T17:38:51.521Z,92342.34
2023-05-12T17:41:18.579Z,92339.69
2023-05-12T17:43:45.271Z,92342.19
2023-05-12T17:46:11.758Z,92337.97
2023-05-12T17:48:38.846Z,92344.69
2023-05-12T17:51:05.500Z,92343.34
2023-05-12T17:53:32.295Z,92339.78
2023-05-12T17:55:59.069Z,92346.28
2023-05-12T17:58:25.586Z,92344.34
2023-05-12T18:00:52.205Z,92345.03
2023-05-12T18:03:23.210Z,92347.31
2023-05-12T18:05:50.651Z,92347.81
2023-05-12T18:08:17.312Z,92345.66
2023-05-12T18:10:43.854Z,92347.69
2023-05-12T18:13:10.601Z,92348.69
2023-05-12T18:15:37.106Z,92348.69
2023-05-12T18:18:03.667Z,92348.25
2023-05-12T18:20:30.164Z,92367.91
2023-05-12T18:22:56.700Z,92359.97
2023-05-12T18:25:23.330Z,92361.25
2023-05-12T18:27:49.961Z,92359.53
2023-05-12T18:30:16.445Z,92362.53
2023-05-12T18:32:43.265Z,92368.94
2023-05-12T18:35:09.873Z,92360.06
2023-05-12T18:37:36.352Z,92361.09
2023-05-12T18:40:02.832Z,92367.75
2023-05-12T18:42:29.302Z,92362.56
2023-05-12T18:44:55.844Z,92364.34
2023-05-12T18:47:22.336Z,92361.41
2023-05-12T18:49:49.276Z,92359.44
2023-05-12T18:52:15.835Z,92367.84
2023-05-12T18:54:42.322Z,92367.13
2023-05-12T18:57:08.782Z,92374.06
2023-05-12T18:59:35.228Z,92375.28
2023-05-12T19:02:01.881Z,92375.78
2023-05-12T19:04:28.425Z,92376.56
2023-05-12T19:06:54.959Z,92378.78
2023-05-12T19:09:21.694Z,92383.25
2023-05-12T19:11:48.165Z,92397.56
2023-05-12T19:14:16.660Z,92392.38
2023-05-12T19:16:43.344Z,92390.13
2023-05-12T19:19:10.095Z,92399.53
2023-05-12T19:21:36.784Z,92393.81
2023-05-12T19:24:03.370Z,92405.91
2023-05-12T19:26:29.870Z,92400.97
2023-05-12T19:28:56.326Z,92402.41
2023-05-12T19:31:22.968Z,92410.78
2023-05-12T19:33:49.486Z,92416.72
2023-05-12T19:36:15.960Z,92408.03
2023-05-12T19:38:44.117Z,92422.09
2023-05-12T19:41:10.815Z,92419.13
2023-05-12T19:43:37.425Z,92420.13
2023-05-12T19:46:03.935Z,92417.16
2023-05-12T19:48:30.639Z,92419.88
2023-05-12T19:50:57.182Z,92427.25
2023-05-12T19:53:23.653Z,92427.25
2023-05-12T19:55:50.123Z,92424.03
2023-05-12T19:58:16.581Z,92426.97
2023-05-12T20:00:43.075Z,92431.41
2023-05-12T20:03:09.642Z,92422.00
2023-05-12T20:05:39.069Z,92421.97
2023-05-12T20:08:05.898Z,92427.63
2023-05-12T20:10:32.495Z,92433.00
2023-05-12T20:12:59.032Z,92429.34
2023-05-12T20:15:25.559Z,92434.53
2023-05-12T20:17:52.064Z,92432.75
2023-05-12T20:20:18.615Z,92434.69
2023-05-12T20:22:45.114Z,92435.69
2023-05-12T20:25:15.900Z,92435.91
2023-05-12T20:27:42.754Z,92436.66
2023-05-12T20:30:09.955Z,92437.66
2023-05-12T20:32:36.540Z,92440.38
2023-05-12T20:35:03.393Z,92439.88
2023-05-12T20:37:29.860Z,92441.13
2023-05-12T20:39:56.475Z,92444.81
2023-05-12T20:42:22.959Z,92448.84
2023-05-12T20:44:50.119Z,92443.44
2023-05-12T20:47:16.631Z,92443.44
2023-05-12T20:49:45.008Z,92439.72
2023-05-12T20:52:11.547Z,92447.88
2023-05-12T20:54:38.530Z,92453.34
2023-05-12T20:57:05.227Z,92453.09
2023-05-12T20:59:32.032Z,92452.41
2023-05-12T21:01:58.731Z,92460.06
2023-05-12T21:04:25.442Z,92454.13
2023-05-12T21:06:53.506Z,92458.34
2023-05-12T21:09:20.392Z,92459.53
2023-05-12T21:11:47.211Z,92459.81
2023-05-12T21:14:13.757Z,92449.88
2023-05-12T21:16:40.393Z,92462.25
2023-05-12T21:19:07.137Z,92463.97
2023-05-12T21:21:33.769Z,92454.78
2023-05-12T21:24:00.287Z,92456.03
2023-05-12T21:26:27.303Z,92450.34
2023-05-12T21:28:53.774Z,92457.78
2023-05-12T21:31:20.261Z,92458.97
2023-05-12T21:33:47.638Z,92450.03
2023-05-12T21:36:14.116Z,92454.53
2023-05-12T21:38:40.556Z,92454.28
2023-05-12T21:41:07.022Z,92453.78
2023-05-12T21:43:33.568Z,92451.00
2023-05-12T21:46:03.881Z,92457.13
2023-05-12T21:48:31.966Z,92467.25
2023-05-12T21:51:02.419Z,92465.22
2023-05-12T21:53:28.981Z,92458.31
2023-05-12T21:55:55.516Z,92465.94
2023-05-12T21:58:23.555Z,92464.72
2023-05-12T22:00:51.209Z,92455.34
2023-05-12T22:03:20.202Z,92454.84
2023-05-12T22:05:47.005Z,92457.56
2023-05-12T22:08:13.873Z,92457.25
2023-05-12T22:10:40.406Z,92459.47
2023-05-12T22:13:07.302Z,92463.41
2023-05-12T22:15:33.942Z,92453.53
2023-05-12T22:18:01.014Z,92465.63
2023-05-12T22:20:27.895Z,92461.38
2023-05-12T22:22:54.425Z,92469.25
2023-05-12T22:25:20.982Z,92464.09
2023-05-12T22:27:47.439Z,92466.06
2023-05-12T22:30:14.181Z,92477.13
2023-05-12T22:32:40.780Z,92481.84
2023-05-12T22:35:07.792Z,92481.09
2023-05-12T22:37:34.340Z,92473.69
2023-05-12T22:40:00.826Z,92483.56
2023-05-12T22:42:27.296Z,92477.16
2023-05-12T22:44:53.769Z,92479.34
2023-05-12T22:47:20.330Z,92473.19
2023-05-12T22:49:46.876Z,92470.47
2023-05-12T22:52:13.356Z,92469.19
2023-05-12T22:54:39.805Z,92473.34
2023-05-12T22:57:06.361Z,92484.94
2023-05-12T22:59:32.848Z,92481.19
2023-05-12T23:01:59.309Z,92484.03
2023-05-12T23:04:26.001Z,92487.72
2023-05-12T23:06:52.480Z,92487.06
2023-05-12T23:09:18.933Z,92488.06
2023-05-12T23:11:45.405Z,92484.50
2023-05-12T23:14:12.039Z,92486.19
2023-05-12T23:16:38.571Z,92479.75
2023-05-12T23:19:05.326Z,92481.44
2023-05-12T23:21:32.740Z,92484.28
2023-05-12T23:23:59.216Z,92484.97
2023-05-12T23:26:25.822Z,92480.50
2023-05-12T23:28:52.310Z,92477.28
2023-05-12T23:31:18.806Z,92476.19
2023-05-12T23:33:45.382Z,92474.91
2023-05-12T23:36:13.413Z,92476.34
2023-05-12T23:38:40.091Z,92477.09
2023-05-12T23:41:06.624Z,92479.00
2023-05-12T23:43:33.140Z,92471.28
2023-05-12T23:45:59.659Z,92473.91
2023-05-12T23:48:26.156Z,92478.09
2023-05-12T23:50:52.676Z,92473.09
2023-05-12T23:53:19.158Z,92473.84
2023-05-12T23:55:45.743Z,92469.38
2023-05-12T23:58:12.265Z,92476.81
